4XCWC LLHA-LLER
Flight info
| Callsign | 4XCWC |
|---|---|
| Flight time | N/A |
| Altitude | 5000 |
| Route | GALIM Q28 ATLIT J15 NAT J10 NURIT CF19 |
| Aircraft | C172/L-SDE3L/C |
Departure
| Time | 2026-04-24 11:55 |
|---|---|
| Airport | Uri Michaeli Haifa International Airport (LLHA) |
Arrival
| Time | N/A |
|---|---|
| Airport | Ramon International Airport (LLER) |
| Time | Latitude | Longitude | Altitude | Speed | Heading |
|---|---|---|---|---|---|
| 2026-04-24 11:43 | 32.81146 | 35.04133 | 14 ft | 0 kts | 339° |
| 2026-04-24 11:50 | 32.81150 | 35.04141 | 14 ft | 0 kts | 124° |
| 2026-04-24 11:50 | 32.81149 | 35.04142 | 14 ft | 2 kts | 132° |
| 2026-04-24 11:50 | 32.81138 | 35.04161 | 14 ft | 5 kts | 110° |
| 2026-04-24 11:51 | 32.81152 | 35.04224 | 14 ft | 12 kts | 70° |
| 2026-04-24 11:51 | 32.81157 | 35.04238 | 14 ft | 8 kts | 70° |
| 2026-04-24 11:51 | 32.81107 | 35.04330 | 12 ft | 18 kts | 161° |
| 2026-04-24 11:51 | 32.80995 | 35.04376 | 12 ft | 16 kts | 160° |
| 2026-04-24 11:52 | 32.80897 | 35.04419 | 12 ft | 14 kts | 159° |
| 2026-04-24 11:52 | 32.80807 | 35.04462 | 11 ft | 14 kts | 156° |
| 2026-04-24 11:52 | 32.80724 | 35.04506 | 10 ft | 12 kts | 156° |
| 2026-04-24 11:52 | 32.80648 | 35.04546 | 10 ft | 11 kts | 155° |
| 2026-04-24 11:53 | 32.80576 | 35.04585 | 8 ft | 11 kts | 155° |
| 2026-04-24 11:53 | 32.80505 | 35.04623 | 7 ft | 11 kts | 156° |
| 2026-04-24 11:53 | 32.80459 | 35.04646 | 8 ft | 4 kts | 156° |
| 2026-04-24 11:53 | 32.80455 | 35.04651 | 8 ft | 0 kts | 115° |
| 2026-04-24 11:54 | 32.80453 | 35.04653 | 8 ft | 3 kts | 135° |
| 2026-04-24 11:54 | 32.80505 | 35.04602 | 7 ft | 30 kts | 339° |
| 2026-04-24 11:54 | 32.80841 | 35.04450 | 19 ft | 70 kts | 340° |
| 2026-04-24 11:54 | 32.81318 | 35.04248 | 214 ft | 75 kts | 339° |
| 2026-04-24 11:55 | 32.81812 | 35.04044 | 414 ft | 76 kts | 342° |
| 2026-04-24 11:55 | 32.82310 | 35.03851 | 672 ft | 75 kts | 342° |
| 2026-04-24 11:55 | 32.82843 | 35.03614 | 765 ft | 87 kts | 334° |
| 2026-04-24 11:55 | 32.83303 | 35.03108 | 772 ft | 104 kts | 300° |
| 2026-04-24 11:56 | 32.83388 | 35.02157 | 731 ft | 113 kts | 277° |
| 2026-04-24 11:56 | 32.83344 | 35.01293 | 1002 ft | 100 kts | 275° |
| 2026-04-24 11:56 | 32.83314 | 35.00422 | 978 ft | 112 kts | 284° |
| 2026-04-24 11:56 | 32.83389 | 34.99496 | 1037 ft | 111 kts | 288° |
| 2026-04-24 11:57 | 32.83498 | 34.98555 | 1007 ft | 120 kts | 278° |
| 2026-04-24 11:57 | 32.83443 | 34.97554 | 1120 ft | 128 kts | 264° |
| 2026-04-24 11:57 | 32.83261 | 34.96511 | 1091 ft | 120 kts | 259° |
| 2026-04-24 11:57 | 32.82831 | 34.95689 | 1001 ft | 117 kts | 233° |
| 2026-04-24 11:58 | 32.82085 | 34.95351 | 980 ft | 127 kts | 182° |
| 2026-04-24 11:58 | 32.81150 | 34.95381 | 906 ft | 139 kts | 176° |
| 2026-04-24 11:58 | 32.80191 | 34.95421 | 970 ft | 135 kts | 181° |
| 2026-04-24 11:58 | 32.79276 | 34.95397 | 1097 ft | 128 kts | 181° |
| 2026-04-24 11:59 | 32.78380 | 34.95350 | 1095 ft | 130 kts | 183° |
| 2026-04-24 11:59 | 32.77492 | 34.95212 | 1167 ft | 127 kts | 194° |
| 2026-04-24 11:59 | 32.76644 | 34.94957 | 1268 ft | 126 kts | 200° |
| 2026-04-24 11:59 | 32.75865 | 34.94466 | 1257 ft | 129 kts | 225° |
| 2026-04-24 12:00 | 32.75084 | 34.94018 | 1340 ft | 126 kts | 200° |
| 2026-04-24 12:00 | 32.74326 | 34.93518 | 1366 ft | 129 kts | 230° |
| 2026-04-24 12:00 | 32.73547 | 34.92980 | 1385 ft | 133 kts | 198° |
| 2026-04-24 12:00 | 32.72666 | 34.92648 | 1406 ft | 134 kts | 199° |
| 2026-04-24 12:01 | 32.71776 | 34.92293 | 1425 ft | 135 kts | 200° |
| 2026-04-24 12:01 | 32.70880 | 34.91948 | 1425 ft | 135 kts | 200° |
| 2026-04-24 12:01 | 32.69978 | 34.91611 | 1420 ft | 137 kts | 197° |
| 2026-04-24 12:01 | 32.69037 | 34.91632 | 1449 ft | 136 kts | 168° |
| 2026-04-24 12:02 | 32.68108 | 34.91787 | 1476 ft | 135 kts | 173° |
| 2026-04-24 12:02 | 32.67174 | 34.91915 | 1515 ft | 135 kts | 173° |
| 2026-04-24 12:02 | 32.66243 | 34.92050 | 1520 ft | 135 kts | 173° |
| 2026-04-24 12:02 | 32.65450 | 34.92166 | 1501 ft | 136 kts | 171° |
| 2026-04-24 12:03 | 32.64508 | 34.92301 | 1505 ft | 137 kts | 172° |
| 2026-04-24 12:03 | 32.63566 | 34.92443 | 1587 ft | 137 kts | 170° |
| 2026-04-24 12:03 | 32.62626 | 34.92553 | 1673 ft | 131 kts | 171° |
| 2026-04-24 12:03 | 32.61767 | 34.92710 | 1789 ft | 123 kts | 174° |
| 2026-04-24 12:04 | 32.60921 | 34.92827 | 1931 ft | 120 kts | 169° |
| 2026-04-24 12:04 | 32.60098 | 34.92969 | 2059 ft | 120 kts | 172° |
| 2026-04-24 12:04 | 32.59281 | 34.93087 | 2237 ft | 119 kts | 172° |
| 2026-04-24 12:04 | 32.58460 | 34.93203 | 2387 ft | 117 kts | 173° |
| 2026-04-24 12:05 | 32.57646 | 34.93315 | 2530 ft | 117 kts | 173° |
| 2026-04-24 12:05 | 32.56841 | 34.93413 | 2653 ft | 115 kts | 170° |
| 2026-04-24 12:05 | 32.56120 | 34.93550 | 2775 ft | 112 kts | 173° |
| 2026-04-24 12:05 | 32.55384 | 34.93644 | 2907 ft | 103 kts | 169° |
| 2026-04-24 12:06 | 32.54670 | 34.93762 | 3037 ft | 104 kts | 173° |
| 2026-04-24 12:06 | 32.53968 | 34.93866 | 3196 ft | 103 kts | 172° |
| 2026-04-24 12:06 | 32.53249 | 34.93967 | 3348 ft | 102 kts | 172° |
| 2026-04-24 12:06 | 32.52533 | 34.94075 | 3494 ft | 105 kts | 173° |
| 2026-04-24 12:07 | 32.51795 | 34.94180 | 3638 ft | 108 kts | 171° |
| 2026-04-24 12:07 | 32.51043 | 34.94291 | 3790 ft | 109 kts | 173° |
| 2026-04-24 12:07 | 32.50307 | 34.94407 | 3866 ft | 106 kts | 169° |
| 2026-04-24 12:07 | 32.49602 | 34.94501 | 4003 ft | 106 kts | 172° |
| 2026-04-24 12:08 | 32.48885 | 34.94604 | 4161 ft | 103 kts | 172° |
| 2026-04-24 12:08 | 32.48176 | 34.94712 | 4308 ft | 103 kts | 171° |
| 2026-04-24 12:08 | 32.47477 | 34.94815 | 4457 ft | 99 kts | 171° |
| 2026-04-24 12:08 | 32.46814 | 34.94912 | 4588 ft | 93 kts | 169° |
| 2026-04-24 12:09 | 32.46182 | 34.95005 | 4736 ft | 90 kts | 171° |
| 2026-04-24 12:09 | 32.45575 | 34.95091 | 4847 ft | 85 kts | 171° |
| 2026-04-24 12:09 | 32.44979 | 34.95185 | 4986 ft | 88 kts | 172° |
| 2026-04-24 12:09 | 32.44383 | 34.95274 | 5131 ft | 86 kts | 171° |
| 2026-04-24 12:10 | 32.43765 | 34.95362 | 5212 ft | 92 kts | 173° |
| 2026-04-24 12:10 | 32.43119 | 34.95459 | 5281 ft | 96 kts | 172° |
| 2026-04-24 12:10 | 32.42498 | 34.95550 | 5341 ft | 104 kts | 173° |
| 2026-04-24 12:11 | 32.41155 | 34.95749 | 5447 ft | 114 kts | 171° |
| 2026-04-24 12:11 | 32.40599 | 34.95830 | 5482 ft | 112 kts | 171° |
| 2026-04-24 12:11 | 32.39806 | 34.95946 | 5541 ft | 115 kts | 173° |
| 2026-04-24 12:11 | 32.39023 | 34.96060 | 5576 ft | 112 kts | 171° |
| 2026-04-24 12:12 | 32.38244 | 34.96173 | 5660 ft | 111 kts | 172° |
| 2026-04-24 12:12 | 32.37451 | 34.96289 | 5731 ft | 116 kts | 173° |
| 2026-04-24 12:12 | 32.36657 | 34.96413 | 5815 ft | 115 kts | 172° |
| 2026-04-24 12:12 | 32.35858 | 34.96530 | 5903 ft | 117 kts | 173° |
| 2026-04-24 12:13 | 32.35061 | 34.96641 | 5945 ft | 112 kts | 172° |
| 2026-04-24 12:13 | 32.34303 | 34.96753 | 6021 ft | 112 kts | 172° |
| 2026-04-24 12:13 | 32.33523 | 34.96879 | 6103 ft | 114 kts | 166° |
| 2026-04-24 12:13 | 32.32870 | 34.97362 | 6168 ft | 109 kts | 136° |
| 2026-04-24 12:14 | 32.32263 | 34.97882 | 6245 ft | 109 kts | 141° |
| 2026-04-24 12:14 | 32.31645 | 34.98418 | 6317 ft | 108 kts | 143° |
| 2026-04-24 12:14 | 32.31054 | 34.98940 | 6375 ft | 104 kts | 141° |
| 2026-04-24 12:14 | 32.30485 | 34.99442 | 6448 ft | 102 kts | 146° |
| 2026-04-24 12:15 | 32.29976 | 34.99885 | 6518 ft | 104 kts | 145° |
| 2026-04-24 12:15 | 32.29402 | 35.00386 | 6580 ft | 100 kts | 145° |
| 2026-04-24 12:15 | 32.28853 | 35.00867 | 6638 ft | 98 kts | 147° |
| 2026-04-24 12:15 | 32.28310 | 35.01350 | 6700 ft | 96 kts | 147° |
| 2026-04-24 12:16 | 32.27781 | 35.01806 | 6771 ft | 95 kts | 148° |
| 2026-04-24 12:16 | 32.27245 | 35.02274 | 6841 ft | 96 kts | 148° |
| 2026-04-24 12:16 | 32.26705 | 35.02749 | 6914 ft | 97 kts | 148° |
| 2026-04-24 12:16 | 32.26158 | 35.03229 | 6987 ft | 98 kts | 148° |
| 2026-04-24 12:17 | 32.25608 | 35.03713 | 7062 ft | 99 kts | 147° |
| 2026-04-24 12:17 | 32.25054 | 35.04194 | 7136 ft | 99 kts | 147° |
| 2026-04-24 12:17 | 32.24506 | 35.04677 | 7201 ft | 97 kts | 149° |
| 2026-04-24 12:17 | 32.23965 | 35.05150 | 7277 ft | 97 kts | 148° |
| 2026-04-24 12:18 | 32.23543 | 35.05519 | 7331 ft | 96 kts | 148° |
| 2026-04-24 12:18 | 32.23287 | 35.05749 | 7363 ft | 96 kts | 147° |
| 2026-04-24 12:18 | 32.22758 | 35.06213 | 7426 ft | 93 kts | 147° |
| 2026-04-24 12:18 | 32.22242 | 35.06668 | 7494 ft | 92 kts | 151° |
| 2026-04-24 12:19 | 32.21738 | 35.07103 | 7571 ft | 92 kts | 149° |
| 2026-04-24 12:19 | 32.21243 | 35.07534 | 7633 ft | 92 kts | 148° |
| 2026-04-24 12:19 | 32.20733 | 35.07983 | 7702 ft | 91 kts | 152° |
| 2026-04-24 12:19 | 32.20227 | 35.08426 | 7782 ft | 91 kts | 153° |
| 2026-04-24 12:20 | 32.19710 | 35.08875 | 7855 ft | 92 kts | 149° |
| 2026-04-24 12:20 | 32.19201 | 35.09320 | 7926 ft | 91 kts | 153° |
| 2026-04-24 12:20 | 32.18689 | 35.09769 | 7999 ft | 92 kts | 152° |
| 2026-04-24 12:20 | 32.18170 | 35.10220 | 8080 ft | 92 kts | 149° |
| 2026-04-24 12:21 | 32.17657 | 35.10668 | 8148 ft | 91 kts | 149° |
| 2026-04-24 12:21 | 32.17162 | 35.11104 | 8216 ft | 89 kts | 153° |
| 2026-04-24 12:21 | 32.16674 | 35.11531 | 8277 ft | 86 kts | 153° |
| 2026-04-24 12:21 | 32.16201 | 35.11946 | 8339 ft | 82 kts | 153° |
| 2026-04-24 12:22 | 32.15742 | 35.12343 | 8406 ft | 81 kts | 150° |
| 2026-04-24 12:22 | 32.15288 | 35.12746 | 8471 ft | 82 kts | 149° |
| 2026-04-24 12:22 | 32.14859 | 35.13122 | 8499 ft | 74 kts | 153° |
| 2026-04-24 12:22 | 32.14441 | 35.13483 | 8460 ft | 75 kts | 154° |
| 2026-04-24 12:23 | 32.13976 | 35.13883 | 8372 ft | 87 kts | 152° |
| 2026-04-24 12:23 | 32.13481 | 35.14313 | 8381 ft | 89 kts | 150° |
| 2026-04-24 12:23 | 32.13149 | 35.14605 | 8390 ft | 90 kts | 151° |
| 2026-04-24 12:23 | 32.12635 | 35.15053 | 8393 ft | 93 kts | 150° |
| 2026-04-24 12:24 | 32.12111 | 35.15510 | 8405 ft | 95 kts | 149° |
| 2026-04-24 12:24 | 32.11575 | 35.15982 | 8416 ft | 97 kts | 149° |
| 2026-04-24 12:24 | 32.11020 | 35.16467 | 8425 ft | 101 kts | 151° |
| 2026-04-24 12:24 | 32.10459 | 35.16958 | 8417 ft | 99 kts | 151° |
| 2026-04-24 12:25 | 32.09928 | 35.17420 | 8413 ft | 98 kts | 149° |
| 2026-04-24 12:25 | 32.09383 | 35.17898 | 8418 ft | 98 kts | 152° |
| 2026-04-24 12:25 | 32.08827 | 35.18385 | 8425 ft | 101 kts | 153° |
| 2026-04-24 12:25 | 32.08251 | 35.18881 | 8425 ft | 104 kts | 151° |
| 2026-04-24 12:26 | 32.07671 | 35.19385 | 8452 ft | 103 kts | 149° |
| 2026-04-24 12:26 | 32.07086 | 35.19893 | 8453 ft | 105 kts | 151° |
| 2026-04-24 12:26 | 32.06493 | 35.20417 | 8458 ft | 106 kts | 149° |
| 2026-04-24 12:26 | 32.05909 | 35.20924 | 8457 ft | 105 kts | 151° |
| 2026-04-24 12:27 | 32.05321 | 35.21440 | 8448 ft | 105 kts | 149° |
| 2026-04-24 12:27 | 32.04732 | 35.21948 | 8456 ft | 106 kts | 149° |
| 2026-04-24 12:27 | 32.04138 | 35.22473 | 8459 ft | 107 kts | 152° |
| 2026-04-24 12:27 | 32.03544 | 35.22989 | 8446 ft | 103 kts | 149° |
| 2026-04-24 12:28 | 32.02967 | 35.23491 | 8446 ft | 103 kts | 151° |
| 2026-04-24 12:28 | 32.02389 | 35.23997 | 8447 ft | 104 kts | 152° |
| 2026-04-24 12:28 | 32.01813 | 35.24494 | 8451 ft | 105 kts | 152° |
| 2026-04-24 12:28 | 32.01227 | 35.24999 | 8450 ft | 103 kts | 150° |
| 2026-04-24 12:29 | 32.00651 | 35.25502 | 8446 ft | 103 kts | 149° |
| 2026-04-24 12:29 | 32.00081 | 35.26002 | 8429 ft | 100 kts | 150° |
| 2026-04-24 12:29 | 31.99527 | 35.26482 | 8422 ft | 100 kts | 152° |
| 2026-04-24 12:29 | 31.98990 | 35.27042 | 8411 ft | 107 kts | 128° |
| 2026-04-24 12:30 | 31.98825 | 35.27895 | 8409 ft | 110 kts | 89° |
| 2026-04-24 12:30 | 31.98829 | 35.28778 | 8394 ft | 106 kts | 115° |
| 2026-04-24 12:30 | 31.98280 | 35.29187 | 8325 ft | 96 kts | 192° |
| 2026-04-24 12:30 | 31.97618 | 35.29033 | 8256 ft | 101 kts | 194° |
| 2026-04-24 12:31 | 31.96917 | 35.28878 | 8173 ft | 104 kts | 195° |
| 2026-04-24 12:31 | 31.96188 | 35.28711 | 8083 ft | 108 kts | 195° |
| 2026-04-24 12:31 | 31.95439 | 35.28541 | 7996 ft | 111 kts | 195° |
| 2026-04-24 12:31 | 31.94669 | 35.28364 | 7903 ft | 114 kts | 195° |
| 2026-04-24 12:32 | 31.93886 | 35.28182 | 7798 ft | 116 kts | 195° |
| 2026-04-24 12:32 | 31.93083 | 35.28002 | 7679 ft | 118 kts | 195° |
| 2026-04-24 12:32 | 31.92282 | 35.27831 | 7557 ft | 116 kts | 194° |
| 2026-04-24 12:32 | 31.91479 | 35.27644 | 7433 ft | 119 kts | 195° |
| 2026-04-24 12:33 | 31.90652 | 35.27449 | 7322 ft | 124 kts | 195° |
| 2026-04-24 12:33 | 31.89787 | 35.27250 | 7206 ft | 128 kts | 195° |
| 2026-04-24 12:33 | 31.88920 | 35.27054 | 7091 ft | 129 kts | 194° |
| 2026-04-24 12:33 | 31.88034 | 35.26849 | 6975 ft | 131 kts | 195° |
| 2026-04-24 12:34 | 31.87141 | 35.26646 | 6857 ft | 130 kts | 194° |
| 2026-04-24 12:34 | 31.86258 | 35.26441 | 6734 ft | 128 kts | 195° |
| 2026-04-24 12:34 | 31.85386 | 35.26235 | 6621 ft | 129 kts | 195° |
| 2026-04-24 12:34 | 31.84502 | 35.26018 | 6502 ft | 130 kts | 194° |
| 2026-04-24 12:35 | 31.83640 | 35.25723 | 6375 ft | 128 kts | 216° |
| 2026-04-24 12:35 | 31.83266 | 35.24833 | 6263 ft | 128 kts | 272° |
| 2026-04-24 12:35 | 31.83598 | 35.23858 | 6155 ft | 130 kts | 296° |
| 2026-04-24 12:35 | 31.84007 | 35.22897 | 6029 ft | 132 kts | 295° |
| 2026-04-24 12:36 | 31.84393 | 35.21943 | 5905 ft | 133 kts | 295° |
| 2026-04-24 12:36 | 31.84793 | 35.20947 | 5781 ft | 133 kts | 295° |
| 2026-04-24 12:36 | 31.85185 | 35.19962 | 5651 ft | 133 kts | 295° |
| 2026-04-24 12:36 | 31.85575 | 35.18972 | 5530 ft | 133 kts | 295° |
| 2026-04-24 12:37 | 31.85962 | 35.17982 | 5406 ft | 133 kts | 295° |
| 2026-04-24 12:37 | 31.86348 | 35.16987 | 5284 ft | 134 kts | 295° |
| 2026-04-24 12:37 | 31.86730 | 35.15984 | 5159 ft | 135 kts | 295° |
| 2026-04-24 12:37 | 31.87110 | 35.14976 | 5071 ft | 133 kts | 295° |
| 2026-04-24 12:38 | 31.87482 | 35.13990 | 5017 ft | 131 kts | 295° |
| 2026-04-24 12:38 | 31.87844 | 35.13021 | 4965 ft | 128 kts | 295° |
| 2026-04-24 12:38 | 31.88195 | 35.12071 | 4960 ft | 126 kts | 295° |
| 2026-04-24 12:39 | 31.89235 | 35.09295 | 4958 ft | 123 kts | 290° |
| 2026-04-24 12:39 | 31.89564 | 35.08359 | 4947 ft | 124 kts | 291° |
| 2026-04-24 12:39 | 31.89913 | 35.07431 | 4938 ft | 124 kts | 292° |
| 2026-04-24 12:40 | 31.90323 | 35.06538 | 4926 ft | 124 kts | 300° |
| 2026-04-24 12:40 | 31.90766 | 35.05667 | 4917 ft | 124 kts | 303° |
| 2026-04-24 12:40 | 31.91267 | 35.04836 | 4904 ft | 125 kts | 305° |
| 2026-04-24 12:40 | 31.91787 | 35.03990 | 4834 ft | 130 kts | 305° |